sensor_id;sensor_type;location;lat;lon;timestamp;pressure;altitude;pressure_sealevel;temperature;humidity
58072;BME280;60383;46.626;18.866;2023-05-29T00:02:01;100292.47;;;18.22;73.81
58072;BME280;60383;46.626;18.866;2023-05-29T00:04:27;100295.03;;;18.17;74.23
58072;BME280;60383;46.626;18.866;2023-05-29T00:06:53;100300.56;;;18.24;74.00
58072;BME280;60383;46.626;18.866;2023-05-29T00:09:19;100299.94;;;18.28;74.31
58072;BME280;60383;46.626;18.866;2023-05-29T00:11:44;100292.91;;;18.26;75.55
58072;BME280;60383;46.626;18.866;2023-05-29T00:14:16;100298.88;;;18.16;76.51
58072;BME280;60383;46.626;18.866;2023-05-29T00:16:44;100286.50;;;18.18;75.37
58072;BME280;60383;46.626;18.866;2023-05-29T00:19:10;100296.75;;;18.25;74.44
58072;BME280;60383;46.626;18.866;2023-05-29T00:21:35;100287.56;;;18.31;73.79
58072;BME280;60383;46.626;18.866;2023-05-29T00:24:01;100286.72;;;18.17;74.15
58072;BME280;60383;46.626;18.866;2023-05-29T00:26:26;100285.00;;;18.09;74.31
58072;BME280;60383;46.626;18.866;2023-05-29T00:28:52;100290.13;;;18.12;74.08
58072;BME280;60383;46.626;18.866;2023-05-29T00:31:17;100291.13;;;17.91;74.61
58072;BME280;60383;46.626;18.866;2023-05-29T00:33:43;100283.91;;;17.97;74.49
58072;BME280;60383;46.626;18.866;2023-05-29T00:36:09;100282.63;;;17.99;74.78
58072;BME280;60383;46.626;18.866;2023-05-29T00:38:35;100282.22;;;18.02;75.05
58072;BME280;60383;46.626;18.866;2023-05-29T00:41:01;100277.09;;;17.99;74.87
58072;BME280;60383;46.626;18.866;2023-05-29T00:43:28;100282.66;;;18.06;74.61
58072;BME280;60383;46.626;18.866;2023-05-29T00:45:53;100272.66;;;18.12;74.10
58072;BME280;60383;46.626;18.866;2023-05-29T00:48:19;100277.53;;;18.10;73.92
58072;BME280;60383;46.626;18.866;2023-05-29T00:50:45;100281.59;;;18.07;73.80
58072;BME280;60383;46.626;18.866;2023-05-29T00:53:11;100276.69;;;18.09;73.81
58072;BME280;60383;46.626;18.866;2023-05-29T00:55:37;100282.22;;;18.09;73.79
58072;BME280;60383;46.626;18.866;2023-05-29T00:58:04;100280.66;;;17.93;74.22
58072;BME280;60383;46.626;18.866;2023-05-29T01:00:30;100285.59;;;17.91;74.44
58072;BME280;60383;46.626;18.866;2023-05-29T01:02:56;100285.41;;;17.99;76.35
58072;BME280;60383;46.626;18.866;2023-05-29T01:05:23;100288.53;;;17.89;77.26
58072;BME280;60383;46.626;18.866;2023-05-29T01:07:48;100292.63;;;17.94;77.27
58072;BME280;60383;46.626;18.866;2023-05-29T01:10:15;100288.13;;;17.93;77.83
58072;BME280;60383;46.626;18.866;2023-05-29T01:12:49;100294.09;;;17.89;78.53
58072;BME280;60383;46.626;18.866;2023-05-29T01:15:24;100290.22;;;17.77;78.70
58072;BME280;60383;46.626;18.866;2023-05-29T01:20:53;100279.72;;;17.59;79.08
58072;BME280;60383;46.626;18.866;2023-05-29T01:24:02;100277.13;;;17.44;77.91
58072;BME280;60383;46.626;18.866;2023-05-29T01:26:58;100279.72;;;17.52;73.86
58072;BME280;60383;46.626;18.866;2023-05-29T01:29:28;100278.25;;;17.63;73.56
58072;BME280;60383;46.626;18.866;2023-05-29T01:31:57;100283.75;;;17.50;72.81
58072;BME280;60383;46.626;18.866;2023-05-29T01:34:23;100287.75;;;17.40;74.82
58072;BME280;60383;46.626;18.866;2023-05-29T01:36:49;100285.84;;;17.48;74.57
58072;BME280;60383;46.626;18.866;2023-05-29T01:39:15;100286.06;;;17.46;73.44
58072;BME280;60383;46.626;18.866;2023-05-29T01:41:43;100283.31;;;17.46;73.32
58072;BME280;60383;46.626;18.866;2023-05-29T01:44:10;100284.63;;;17.57;73.01
58072;BME280;60383;46.626;18.866;2023-05-29T01:46:45;100278.00;;;17.51;73.79
58072;BME280;60383;46.626;18.866;2023-05-29T01:49:12;100273.22;;;17.32;74.66
58072;BME280;60383;46.626;18.866;2023-05-29T01:51:41;100274.53;;;17.01;78.14
58072;BME280;60383;46.626;18.866;2023-05-29T01:54:07;100275.28;;;17.16;77.79
58072;BME280;60383;46.626;18.866;2023-05-29T01:56:33;100276.94;;;16.82;79.04
58072;BME280;60383;46.626;18.866;2023-05-29T01:59:01;100271.38;;;16.75;79.04
58072;BME280;60383;46.626;18.866;2023-05-29T02:01:27;100269.91;;;16.51;80.64
58072;BME280;60383;46.626;18.866;2023-05-29T02:03:53;100269.72;;;16.81;80.89
58072;BME280;60383;46.626;18.866;2023-05-29T02:06:19;100271.16;;;16.99;80.79
58072;BME280;60383;46.626;18.866;2023-05-29T02:08:45;100268.13;;;16.65;81.70
58072;BME280;60383;46.626;18.866;2023-05-29T02:11:11;100268.56;;;16.97;80.54
58072;BME280;60383;46.626;18.866;2023-05-29T02:13:37;100271.91;;;16.57;82.74
58072;BME280;60383;46.626;18.866;2023-05-29T02:16:03;100272.09;;;16.84;83.17
58072;BME280;60383;46.626;18.866;2023-05-29T02:18:28;100274.38;;;16.24;86.13
58072;BME280;60383;46.626;18.866;2023-05-29T02:20:53;100274.47;;;16.37;84.84
58072;BME280;60383;46.626;18.866;2023-05-29T02:23:19;100288.81;;;16.48;83.78
58072;BME280;60383;46.626;18.866;2023-05-29T02:25:45;100286.47;;;16.01;84.65
58072;BME280;60383;46.626;18.866;2023-05-29T02:28:11;100288.22;;;16.31;84.16
58072;BME280;60383;46.626;18.866;2023-05-29T02:30:37;100291.59;;;16.04;86.16
58072;BME280;60383;46.626;18.866;2023-05-29T02:33:04;100283.63;;;16.38;85.30
58072;BME280;60383;46.626;18.866;2023-05-29T02:35:29;100285.72;;;16.57;85.40
58072;BME280;60383;46.626;18.866;2023-05-29T02:37:55;100296.44;;;16.67;85.89
58072;BME280;60383;46.626;18.866;2023-05-29T02:40:20;100294.25;;;16.63;86.30
58072;BME280;60383;46.626;18.866;2023-05-29T02:42:46;100292.19;;;16.71;84.24
58072;BME280;60383;46.626;18.866;2023-05-29T02:45:11;100295.34;;;16.68;84.55
58072;BME280;60383;46.626;18.866;2023-05-29T02:47:37;100299.88;;;16.76;84.24
58072;BME280;60383;46.626;18.866;2023-05-29T02:50:04;100297.78;;;16.78;83.69
58072;BME280;60383;46.626;18.866;2023-05-29T02:52:30;100295.88;;;16.79;83.80
58072;BME280;60383;46.626;18.866;2023-05-29T02:54:55;100302.00;;;16.74;83.88
58072;BME280;60383;46.626;18.866;2023-05-29T02:57:22;100302.41;;;16.71;84.28
58072;BME280;60383;46.626;18.866;2023-05-29T02:59:47;100295.88;;;16.79;84.29
58072;BME280;60383;46.626;18.866;2023-05-29T03:02:13;100289.72;;;16.83;84.01
58072;BME280;60383;46.626;18.866;2023-05-29T03:04:38;100287.94;;;16.75;83.98
58072;BME280;60383;46.626;18.866;2023-05-29T03:07:04;100290.94;;;16.74;84.21
58072;BME280;60383;46.626;18.866;2023-05-29T03:09:30;100295.03;;;16.78;84.29
58072;BME280;60383;46.626;18.866;2023-05-29T03:11:55;100288.63;;;16.77;84.22
58072;BME280;60383;46.626;18.866;2023-05-29T03:14:21;100291.97;;;16.73;84.53
58072;BME280;60383;46.626;18.866;2023-05-29T03:16:47;100286.06;;;16.76;84.51
58072;BME280;60383;46.626;18.866;2023-05-29T03:19:13;100284.59;;;16.80;84.24
58072;BME280;60383;46.626;18.866;2023-05-29T03:21:38;100280.38;;;16.84;84.06
58072;BME280;60383;46.626;18.866;2023-05-29T03:24:04;100294.34;;;16.98;82.65
58072;BME280;60383;46.626;18.866;2023-05-29T03:26:30;100296.09;;;16.84;82.93
58072;BME280;60383;46.626;18.866;2023-05-29T03:28:56;100294.06;;;16.92;82.55
58072;BME280;60383;46.626;18.866;2023-05-29T03:31:21;100290.31;;;17.07;81.47
58072;BME280;60383;46.626;18.866;2023-05-29T03:33:49;100294.13;;;17.06;81.36
58072;BME280;60383;46.626;18.866;2023-05-29T03:36:15;100289.28;;;17.08;81.45
58072;BME280;60383;46.626;18.866;2023-05-29T03:38:43;100292.47;;;17.12;81.06
58072;BME280;60383;46.626;18.866;2023-05-29T03:41:10;100299.50;;;17.07;81.08
58072;BME280;60383;46.626;18.866;2023-05-29T03:43:35;100299.94;;;17.11;80.28
58072;BME280;60383;46.626;18.866;2023-05-29T03:46:01;100310.81;;;17.13;80.40
58072;BME280;60383;46.626;18.866;2023-05-29T03:48:27;100312.09;;;17.17;79.79
58072;BME280;60383;46.626;18.866;2023-05-29T03:50:52;100320.22;;;17.18;78.92
58072;BME280;60383;46.626;18.866;2023-05-29T03:53:18;100321.25;;;17.17;78.98
58072;BME280;60383;46.626;18.866;2023-05-29T03:55:43;100319.72;;;16.86;79.41
58072;BME280;60383;46.626;18.866;2023-05-29T03:58:09;100313.09;;;17.02;78.60
58072;BME280;60383;46.626;18.866;2023-05-29T04:00:37;100318.81;;;17.01;78.94
58072;BME280;60383;46.626;18.866;2023-05-29T04:03:03;100321.19;;;17.04;78.88
58072;BME280;60383;46.626;18.866;2023-05-29T04:05:28;100323.13;;;17.10;78.81
58072;BME280;60383;46.626;18.866;2023-05-29T04:07:55;100318.63;;;17.02;79.31
58072;BME280;60383;46.626;18.866;2023-05-29T04:10:20;100317.25;;;16.91;79.59
58072;BME280;60383;46.626;18.866;2023-05-29T04:12:46;100307.72;;;16.94;79.70
58072;BME280;60383;46.626;18.866;2023-05-29T04:15:11;100310.16;;;16.89;79.93
58072;BME280;60383;46.626;18.866;2023-05-29T04:17:37;100321.22;;;16.89;79.97
58072;BME280;60383;46.626;18.866;2023-05-29T04:20:03;100320.88;;;16.92;80.11
58072;BME280;60383;46.626;18.866;2023-05-29T04:22:36;100333.09;;;17.04;80.25
58072;BME280;60383;46.626;18.866;2023-05-29T04:25:03;100327.63;;;16.89;80.62
58072;BME280;60383;46.626;18.866;2023-05-29T04:27:29;100325.53;;;16.91;80.72
58072;BME280;60383;46.626;18.866;2023-05-29T04:29:55;100328.91;;;16.87;80.52
58072;BME280;60383;46.626;18.866;2023-05-29T04:32:21;100328.97;;;16.93;80.53
58072;BME280;60383;46.626;18.866;2023-05-29T04:34:46;100339.03;;;17.01;80.23
58072;BME280;60383;46.626;18.866;2023-05-29T04:37:13;100328.97;;;16.93;80.30
58072;BME280;60383;46.626;18.866;2023-05-29T04:39:38;100330.09;;;17.06;79.85
58072;BME280;60383;46.626;18.866;2023-05-29T04:42:04;100336.91;;;17.03;78.90
58072;BME280;60383;46.626;18.866;2023-05-29T04:44:30;100336.44;;;16.93;78.95
58072;BME280;60383;46.626;18.866;2023-05-29T04:46:56;100329.72;;;17.09;78.67
58072;BME280;60383;46.626;18.866;2023-05-29T04:49:28;100325.91;;;17.10;78.16
58072;BME280;60383;46.626;18.866;2023-05-29T04:51:54;100332.09;;;17.12;78.53
58072;BME280;60383;46.626;18.866;2023-05-29T04:54:21;100327.47;;;17.19;78.75
58072;BME280;60383;46.626;18.866;2023-05-29T04:56:47;100327.47;;;17.26;78.15
58072;BME280;60383;46.626;18.866;2023-05-29T04:59:13;100325.53;;;17.20;77.79
58072;BME280;60383;46.626;18.866;2023-05-29T05:01:38;100319.16;;;17.19;78.16
58072;BME280;60383;46.626;18.866;2023-05-29T05:04:04;100325.75;;;17.25;77.34
58072;BME280;60383;46.626;18.866;2023-05-29T05:06:30;100326.63;;;17.26;76.28
58072;BME280;60383;46.626;18.866;2023-05-29T05:08:55;100331.34;;;17.32;76.24
58072;BME280;60383;46.626;18.866;2023-05-29T05:11:22;100325.81;;;17.32;76.46
58072;BME280;60383;46.626;18.866;2023-05-29T05:13:48;100325.44;;;17.42;76.10
58072;BME280;60383;46.626;18.866;2023-05-29T05:16:14;100324.00;;;17.52;75.78
58072;BME280;60383;46.626;18.866;2023-05-29T05:18:39;100334.66;;;17.55;75.56
58072;BME280;60383;46.626;18.866;2023-05-29T05:21:05;100324.22;;;17.58;74.72
58072;BME280;60383;46.626;18.866;2023-05-29T05:23:31;100331.06;;;17.62;73.80
58072;BME280;60383;46.626;18.866;2023-05-29T05:25:57;100335.91;;;17.53;73.43
58072;BME280;60383;46.626;18.866;2023-05-29T05:28:22;100334.47;;;17.57;73.73
58072;BME280;60383;46.626;18.866;2023-05-29T05:30:48;100331.28;;;17.60;73.00
58072;BME280;60383;46.626;18.866;2023-05-29T05:33:13;100336.22;;;17.71;72.02
58072;BME280;60383;46.626;18.866;2023-05-29T05:35:39;100334.09;;;17.67;72.78
58072;BME280;60383;46.626;18.866;2023-05-29T05:38:04;100328.53;;;17.67;72.11
58072;BME280;60383;46.626;18.866;2023-05-29T05:40:30;100337.13;;;17.85;71.84
58072;BME280;60383;46.626;18.866;2023-05-29T05:42:55;100339.47;;;17.88;71.60
58072;BME280;60383;46.626;18.866;2023-05-29T05:45:21;100340.56;;;17.87;71.67
58072;BME280;60383;46.626;18.866;2023-05-29T05:47:47;100346.56;;;17.98;71.47
58072;BME280;60383;46.626;18.866;2023-05-29T05:50:12;100340.78;;;17.93;71.75
58072;BME280;60383;46.626;18.866;2023-05-29T05:52:38;100337.53;;;17.76;72.07
58072;BME280;60383;46.626;18.866;2023-05-29T05:55:04;100339.13;;;18.05;71.61
58072;BME280;60383;46.626;18.866;2023-05-29T05:57:29;100343.00;;;18.11;71.32
58072;BME280;60383;46.626;18.866;2023-05-29T05:59:58;100347.66;;;18.03;71.53
58072;BME280;60383;46.626;18.866;2023-05-29T06:02:23;100348.50;;;18.04;71.93
58072;BME280;60383;46.626;18.866;2023-05-29T06:04:49;100352.38;;;18.16;71.10
58072;BME280;60383;46.626;18.866;2023-05-29T06:07:15;100359.72;;;17.89;71.68
58072;BME280;60383;46.626;18.866;2023-05-29T06:09:40;100351.41;;;17.89;72.21
58072;BME280;60383;46.626;18.866;2023-05-29T06:12:07;100351.91;;;17.99;71.32
58072;BME280;60383;46.626;18.866;2023-05-29T06:14:33;100350.97;;;17.92;71.71
58072;BME280;60383;46.626;18.866;2023-05-29T06:17:00;100361.84;;;17.87;71.54
58072;BME280;60383;46.626;18.866;2023-05-29T06:19:26;100354.03;;;17.97;71.32
58072;BME280;60383;46.626;18.866;2023-05-29T06:21:52;100366.53;;;17.86;71.56
58072;BME280;60383;46.626;18.866;2023-05-29T06:24:17;100367.25;;;18.02;71.19
58072;BME280;60383;46.626;18.866;2023-05-29T06:26:43;100372.38;;;17.98;71.86
58072;BME280;60383;46.626;18.866;2023-05-29T06:29:08;100369.53;;;17.92;72.38
58072;BME280;60383;46.626;18.866;2023-05-29T06:31:33;100370.19;;;17.94;72.99
58072;BME280;60383;46.626;18.866;2023-05-29T06:33:59;100372.91;;;17.87;73.99
58072;BME280;60383;46.626;18.866;2023-05-29T06:36:25;100375.91;;;17.92;75.10
58072;BME280;60383;46.626;18.866;2023-05-29T06:38:51;100380.91;;;18.03;76.66
58072;BME280;60383;46.626;18.866;2023-05-29T06:41:17;100382.72;;;17.89;77.30
58072;BME280;60383;46.626;18.866;2023-05-29T06:43:43;100379.16;;;17.96;77.21
58072;BME280;60383;46.626;18.866;2023-05-29T06:46:09;100377.53;;;18.08;76.34
58072;BME280;60383;46.626;18.866;2023-05-29T06:48:35;100382.81;;;17.96;76.79
58072;BME280;60383;46.626;18.866;2023-05-29T06:51:01;100384.00;;;17.80;76.88
58072;BME280;60383;46.626;18.866;2023-05-29T06:53:35;100381.41;;;17.79;77.37
58072;BME280;60383;46.626;18.866;2023-05-29T06:56:00;100385.44;;;17.76;77.27
58072;BME280;60383;46.626;18.866;2023-05-29T06:58:26;100382.72;;;17.89;76.86
58072;BME280;60383;46.626;18.866;2023-05-29T07:00:51;100391.03;;;17.83;77.89
58072;BME280;60383;46.626;18.866;2023-05-29T07:03:17;100391.31;;;17.95;77.38
58072;BME280;60383;46.626;18.866;2023-05-29T07:05:42;100404.34;;;18.01;77.42
58072;BME280;60383;46.626;18.866;2023-05-29T07:08:08;100396.59;;;17.89;76.89
58072;BME280;60383;46.626;18.866;2023-05-29T07:10:33;100400.72;;;18.00;77.68
58072;BME280;60383;46.626;18.866;2023-05-29T07:12:58;100397.09;;;18.07;76.66
58072;BME280;60383;46.626;18.866;2023-05-29T07:15:24;100409.81;;;17.94;77.30
58072;BME280;60383;46.626;18.866;2023-05-29T07:17:50;100397.50;;;17.97;77.84
58072;BME280;60383;46.626;18.866;2023-05-29T07:20:15;100405.41;;;18.00;78.21
58072;BME280;60383;46.626;18.866;2023-05-29T07:22:41;100407.78;;;18.10;77.83
58072;BME280;60383;46.626;18.866;2023-05-29T07:25:06;100411.09;;;17.92;78.45
58072;BME280;60383;46.626;18.866;2023-05-29T07:27:32;100403.84;;;17.91;78.90
58072;BME280;60383;46.626;18.866;2023-05-29T07:29:57;100404.97;;;18.03;78.41
58072;BME280;60383;46.626;18.866;2023-05-29T07:32:23;100413.13;;;18.11;79.13
58072;BME280;60383;46.626;18.866;2023-05-29T07:34:48;100406.56;;;18.26;77.93
58072;BME280;60383;46.626;18.866;2023-05-29T07:37:16;100401.00;;;18.26;78.48
58072;BME280;60383;46.626;18.866;2023-05-29T07:39:44;100404.72;;;18.53;77.44
58072;BME280;60383;46.626;18.866;2023-05-29T07:42:10;100405.09;;;18.43;77.20
58072;BME280;60383;46.626;18.866;2023-05-29T07:44:35;100407.50;;;18.53;76.85
58072;BME280;60383;46.626;18.866;2023-05-29T07:47:01;100415.16;;;18.51;77.07
58072;BME280;60383;46.626;18.866;2023-05-29T07:49:26;100405.56;;;18.60;77.80
58072;BME280;60383;46.626;18.866;2023-05-29T07:51:52;100412.84;;;18.81;76.10
58072;BME280;60383;46.626;18.866;2023-05-29T07:54:18;100410.91;;;18.75;76.54
58072;BME280;60383;46.626;18.866;2023-05-29T07:56:45;100410.72;;;18.83;77.10
58072;BME280;60383;46.626;18.866;2023-05-29T07:59:11;100417.53;;;18.81;77.57
58072;BME280;60383;46.626;18.866;2023-05-29T08:01:37;100421.81;;;18.70;77.34
58072;BME280;60383;46.626;18.866;2023-05-29T08:04:03;100425.63;;;18.56;78.54
58072;BME280;60383;46.626;18.866;2023-05-29T08:06:28;100426.50;;;18.83;78.55
58072;BME280;60383;46.626;18.866;2023-05-29T08:08:54;100423.50;;;18.84;78.92
58072;BME280;60383;46.626;18.866;2023-05-29T08:11:20;100431.47;;;19.08;77.63
58072;BME280;60383;46.626;18.866;2023-05-29T08:13:46;100439.72;;;18.88;76.90
58072;BME280;60383;46.626;18.866;2023-05-29T08:16:11;100447.38;;;18.72;77.90
58072;BME280;60383;46.626;18.866;2023-05-29T08:18:39;100442.09;;;18.91;78.42
58072;BME280;60383;46.626;18.866;2023-05-29T08:21:04;100451.06;;;18.86;78.49
58072;BME280;60383;46.626;18.866;2023-05-29T08:23:30;100445.53;;;18.99;77.58
58072;BME280;60383;46.626;18.866;2023-05-29T08:25:57;100445.97;;;18.96;77.43
58072;BME280;60383;46.626;18.866;2023-05-29T08:28:22;100454.28;;;18.96;77.19
58072;BME280;60383;46.626;18.866;2023-05-29T08:30:48;100446.19;;;18.95;77.05
58072;BME280;60383;46.626;18.866;2023-05-29T08:33:13;100449.38;;;18.98;76.76
58072;BME280;60383;46.626;18.866;2023-05-29T08:35:39;100455.53;;;18.80;78.18
58072;BME280;60383;46.626;18.866;2023-05-29T08:38:04;100457.72;;;18.98;78.18
58072;BME280;60383;46.626;18.866;2023-05-29T08:40:30;100457.88;;;18.90;77.83
58072;BME280;60383;46.626;18.866;2023-05-29T08:43:17;100460.84;;;18.82;78.52
58072;BME280;60383;46.626;18.866;2023-05-29T08:45:43;100456.16;;;18.82;78.90
58072;BME280;60383;46.626;18.866;2023-05-29T08:48:11;100459.84;;;19.03;78.63
58072;BME280;60383;46.626;18.866;2023-05-29T08:50:46;100451.31;;;18.98;79.12
58072;BME280;60383;46.626;18.866;2023-05-29T08:53:13;100445.31;;;19.28;78.68
58072;BME280;60383;46.626;18.866;2023-05-29T08:55:39;100446.34;;;19.54;77.11
58072;BME280;60383;46.626;18.866;2023-05-29T08:58:05;100453.00;;;19.53;75.67
58072;BME280;60383;46.626;18.866;2023-05-29T09:00:32;100448.25;;;19.67;75.10
58072;BME280;60383;46.626;18.866;2023-05-29T09:02:58;100450.81;;;19.68;75.07
58072;BME280;60383;46.626;18.866;2023-05-29T09:05:25;100450.81;;;19.75;75.35
58072;BME280;60383;46.626;18.866;2023-05-29T09:07:53;100455.06;;;19.77;75.17
58072;BME280;60383;46.626;18.866;2023-05-29T09:10:19;100453.16;;;19.71;75.39
58072;BME280;60383;46.626;18.866;2023-05-29T09:12:46;100464.72;;;19.55;76.60
58072;BME280;60383;46.626;18.866;2023-05-29T09:15:22;100452.34;;;19.51;77.11
58072;BME280;60383;46.626;18.866;2023-05-29T09:17:52;100457.25;;;19.55;75.38
58072;BME280;60383;46.626;18.866;2023-05-29T09:20:19;100463.88;;;19.54;75.91
58072;BME280;60383;46.626;18.866;2023-05-29T09:23:07;100462.41;;;19.52;75.93
58072;BME280;60383;46.626;18.866;2023-05-29T09:25:40;100457.88;;;19.64;74.73
58072;BME280;60383;46.626;18.866;2023-05-29T09:28:08;100465.75;;;19.74;74.65
58072;BME280;60383;46.626;18.866;2023-05-29T09:30:43;100472.16;;;19.94;74.76
58072;BME280;60383;46.626;18.866;2023-05-29T09:33:10;100473.22;;;19.80;74.61
58072;BME280;60383;46.626;18.866;2023-05-29T09:35:47;100470.03;;;19.76;74.60
58072;BME280;60383;46.626;18.866;2023-05-29T09:38:17;100474.09;;;19.94;74.25
58072;BME280;60383;46.626;18.866;2023-05-29T09:40:44;100475.81;;;19.88;74.01
58072;BME280;60383;46.626;18.866;2023-05-29T09:43:16;100474.94;;;19.88;73.96
58072;BME280;60383;46.626;18.866;2023-05-29T09:45:49;100473.63;;;19.97;73.76
58072;BME280;60383;46.626;18.866;2023-05-29T09:48:22;100473.78;;;20.16;72.31
58072;BME280;60383;46.626;18.866;2023-05-29T09:50:48;100481.13;;;19.90;70.88
58072;BME280;60383;46.626;18.866;2023-05-29T09:53:21;100474.53;;;19.71;70.91
58072;BME280;60383;46.626;18.866;2023-05-29T09:55:53;100476.47;;;19.84;71.70
58072;BME280;60383;46.626;18.866;2023-05-29T09:58:20;100473.22;;;19.93;72.16
58072;BME280;60383;46.626;18.866;2023-05-29T10:00:46;100476.41;;;19.97;72.68
58072;BME280;60383;46.626;18.866;2023-05-29T10:03:13;100476.22;;;19.85;71.92
58072;BME280;60383;46.626;18.866;2023-05-29T10:05:42;100475.16;;;19.86;71.72
58072;BME280;60383;46.626;18.866;2023-05-29T10:08:11;100467.84;;;20.05;71.60
58072;BME280;60383;46.626;18.866;2023-05-29T10:10:40;100474.47;;;19.98;73.00
58072;BME280;60383;46.626;18.866;2023-05-29T10:13:13;100474.47;;;20.04;73.45
58072;BME280;60383;46.626;18.866;2023-05-29T10:15:44;100472.47;;;20.25;72.61
58072;BME280;60383;46.626;18.866;2023-05-29T10:18:22;100474.19;;;20.26;72.24
58072;BME280;60383;46.626;18.866;2023-05-29T10:20:54;100475.41;;;20.37;71.96
58072;BME280;60383;46.626;18.866;2023-05-29T10:23:24;100476.19;;;20.51;71.45
58072;BME280;60383;46.626;18.866;2023-05-29T10:25:52;100474.00;;;20.59;71.92
58072;BME280;60383;46.626;18.866;2023-05-29T10:28:22;100468.56;;;20.71;71.56
58072;BME280;60383;46.626;18.866;2023-05-29T10:31:19;100464.34;;;21.01;71.51
58072;BME280;60383;46.626;18.866;2023-05-29T10:38:14;100461.25;;;21.41;67.90
58072;BME280;60383;46.626;18.866;2023-05-29T10:40:09;100461.84;;;21.68;67.63
58072;BME280;60383;46.626;18.866;2023-05-29T10:42:51;100449.63;;;22.07;66.60
58072;BME280;60383;46.626;18.866;2023-05-29T10:50:40;100450.09;;;22.71;63.53
58072;BME280;60383;46.626;18.866;2023-05-29T10:53:07;100452.88;;;22.83;63.19
58072;BME280;60383;46.626;18.866;2023-05-29T10:55:39;100454.97;;;22.88;62.26
58072;BME280;60383;46.626;18.866;2023-05-29T10:58:12;100449.47;;;22.69;61.05
58072;BME280;60383;46.626;18.866;2023-05-29T11:00:41;100454.22;;;22.50;57.08
58072;BME280;60383;46.626;18.866;2023-05-29T11:03:07;100456.25;;;22.24;55.34
58072;BME280;60383;46.626;18.866;2023-05-29T11:05:33;100453.75;;;22.34;53.04
58072;BME280;60383;46.626;18.866;2023-05-29T11:08:02;100450.91;;;22.72;51.93
58072;BME280;60383;46.626;18.866;2023-05-29T11:13:11;100433.88;;;23.04;50.62
58072;BME280;60383;46.626;18.866;2023-05-29T11:15:47;100427.56;;;23.08;51.33
58072;BME280;60383;46.626;18.866;2023-05-29T11:18:13;100423.88;;;23.50;50.52
58072;BME280;60383;46.626;18.866;2023-05-29T11:20:43;100427.34;;;23.69;50.14
58072;BME280;60383;46.626;18.866;2023-05-29T11:23:15;100424.78;;;23.91;48.58
58072;BME280;60383;46.626;18.866;2023-05-29T11:25:44;100422.41;;;23.48;52.62
58072;BME280;60383;46.626;18.866;2023-05-29T11:28:12;100427.34;;;23.69;53.42
58072;BME280;60383;46.626;18.866;2023-05-29T11:30:43;100419.13;;;23.63;54.36
58072;BME280;60383;46.626;18.866;2023-05-29T11:33:15;100418.50;;;23.60;54.04
58072;BME280;60383;46.626;18.866;2023-05-29T11:35:45;100407.56;;;24.23;55.96
58072;BME280;60383;46.626;18.866;2023-05-29T11:38:11;100402.34;;;24.27;53.54
58072;BME280;60383;46.626;18.866;2023-05-29T11:40:37;100393.47;;;24.47;51.54
58072;BME280;60383;46.626;18.866;2023-05-29T11:43:05;100393.09;;;24.27;51.10
58072;BME280;60383;46.626;18.866;2023-05-29T11:45:32;100393.88;;;24.10;51.53
58072;BME280;60383;46.626;18.866;2023-05-29T11:48:02;100392.91;;;24.04;51.84
58072;BME280;60383;46.626;18.866;2023-05-29T11:50:32;100385.88;;;23.90;51.87
58072;BME280;60383;46.626;18.866;2023-05-29T11:52:59;100388.72;;;23.66;52.07
58072;BME280;60383;46.626;18.866;2023-05-29T11:55:26;100385.22;;;23.59;52.54
58072;BME280;60383;46.626;18.866;2023-05-29T11:57:59;100382.06;;;23.55;53.95
58072;BME280;60383;46.626;18.866;2023-05-29T12:00:27;100376.72;;;23.30;54.28
58072;BME280;60383;46.626;18.866;2023-05-29T12:02:57;100372.84;;;23.19;54.09
58072;BME280;60383;46.626;18.866;2023-05-29T12:05:23;100371.38;;;23.17;54.90
58072;BME280;60383;46.626;18.866;2023-05-29T12:07:52;100375.53;;;23.26;53.66
58072;BME280;60383;46.626;18.866;2023-05-29T12:10:20;100368.19;;;23.13;54.50
58072;BME280;60383;46.626;18.866;2023-05-29T12:12:57;100365.56;;;23.42;54.86
58072;BME280;60383;46.626;18.866;2023-05-29T12:15:24;100369.28;;;23.59;54.35
58072;BME280;60383;46.626;18.866;2023-05-29T12:17:50;100365.63;;;23.71;54.13
58072;BME280;60383;46.626;18.866;2023-05-29T12:20:16;100361.41;;;23.56;54.58
58072;BME280;60383;46.626;18.866;2023-05-29T12:22:43;100359.13;;;23.18;57.56
58072;BME280;60383;46.626;18.866;2023-05-29T12:25:17;100370.16;;;23.01;58.22
58072;BME280;60383;46.626;18.866;2023-05-29T12:27:44;100367.84;;;23.09;57.55
58072;BME280;60383;46.626;18.866;2023-05-29T12:30:13;100357.38;;;23.05;57.54
58072;BME280;60383;46.626;18.866;2023-05-29T12:32:42;100366.34;;;22.83;59.00
58072;BME280;60383;46.626;18.866;2023-05-29T12:35:19;100366.59;;;22.81;59.06
58072;BME280;60383;46.626;18.866;2023-05-29T12:37:46;100356.44;;;22.99;60.16
58072;BME280;60383;46.626;18.866;2023-05-29T12:42:46;100355.09;;;23.02;59.91
58072;BME280;60383;46.626;18.866;2023-05-29T12:45:13;100354.59;;;23.05;58.82
58072;BME280;60383;46.626;18.866;2023-05-29T12:48:06;100357.22;;;22.64;59.10
58072;BME280;60383;46.626;18.866;2023-05-29T12:50:39;100356.00;;;22.72;59.96
58072;BME280;60383;46.626;18.866;2023-05-29T12:53:09;100355.69;;;22.92;60.42
58072;BME280;60383;46.626;18.866;2023-05-29T12:55:39;100358.72;;;22.90;59.54
58072;BME280;60383;46.626;18.866;2023-05-29T12:58:06;100365.47;;;22.71;60.03
58072;BME280;60383;46.626;18.866;2023-05-29T13:00:37;100360.47;;;22.61;60.10